sensor_id;sensor_type;location;lat;lon;timestamp;P1;durP1;ratioP1;P2;durP2;ratioP2
30398;SDS011;17195;50.838;7.214;2023-02-28T00:00:23;15.57;;;7.10;;
30398;SDS011;17195;50.838;7.214;2023-02-28T00:02:49;15.15;;;6.90;;
30398;SDS011;17195;50.838;7.214;2023-02-28T00:05:16;14.65;;;7.18;;
30398;SDS011;17195;50.838;7.214;2023-02-28T00:07:43;16.65;;;7.45;;
30398;SDS011;17195;50.838;7.214;2023-02-28T00:10:10;19.25;;;7.93;;
30398;SDS011;17195;50.838;7.214;2023-02-28T00:12:37;14.57;;;7.32;;
30398;SDS011;17195;50.838;7.214;2023-02-28T00:15:10;12.93;;;5.43;;
30398;SDS011;17195;50.838;7.214;2023-02-28T00:17:36;7.07;;;4.18;;
30398;SDS011;17195;50.838;7.214;2023-02-28T00:20:02;6.18;;;3.60;;
30398;SDS011;17195;50.838;7.214;2023-02-28T00:22:31;7.60;;;3.70;;
30398;SDS011;17195;50.838;7.214;2023-02-28T00:24:56;6.20;;;3.42;;
30398;SDS011;17195;50.838;7.214;2023-02-28T00:27:22;5.78;;;3.42;;
30398;SDS011;17195;50.838;7.214;2023-02-28T00:29:48;8.23;;;4.00;;
30398;SDS011;17195;50.838;7.214;2023-02-28T00:32:13;8.10;;;4.07;;
30398;SDS011;17195;50.838;7.214;2023-02-28T00:34:39;8.63;;;3.53;;
30398;SDS011;17195;50.838;7.214;2023-02-28T00:37:08;4.63;;;2.63;;
30398;SDS011;17195;50.838;7.214;2023-02-28T00:39:36;4.45;;;2.67;;
30398;SDS011;17195;50.838;7.214;2023-02-28T00:42:03;7.32;;;2.75;;
30398;SDS011;17195;50.838;7.214;2023-02-28T00:44:30;6.97;;;2.72;;
30398;SDS011;17195;50.838;7.214;2023-02-28T00:46:56;3.80;;;2.58;;
30398;SDS011;17195;50.838;7.214;2023-02-28T00:49:22;6.30;;;2.78;;
30398;SDS011;17195;50.838;7.214;2023-02-28T00:51:48;4.82;;;2.65;;
30398;SDS011;17195;50.838;7.214;2023-02-28T00:54:14;4.90;;;2.40;;
30398;SDS011;17195;50.838;7.214;2023-02-28T00:56:40;7.10;;;2.78;;
30398;SDS011;17195;50.838;7.214;2023-02-28T00:59:06;5.50;;;2.53;;
30398;SDS011;17195;50.838;7.214;2023-02-28T01:01:31;4.25;;;2.55;;
30398;SDS011;17195;50.838;7.214;2023-02-28T01:03:57;5.38;;;2.10;;
30398;SDS011;17195;50.838;7.214;2023-02-28T01:06:23;4.80;;;2.17;;
30398;SDS011;17195;50.838;7.214;2023-02-28T01:08:48;3.40;;;2.20;;
30398;SDS011;17195;50.838;7.214;2023-02-28T01:11:15;5.40;;;2.08;;
30398;SDS011;17195;50.838;7.214;2023-02-28T01:13:42;9.40;;;2.53;;
30398;SDS011;17195;50.838;7.214;2023-02-28T01:16:09;2.65;;;2.25;;
30398;SDS011;17195;50.838;7.214;2023-02-28T01:18:35;4.32;;;2.25;;
30398;SDS011;17195;50.838;7.214;2023-02-28T01:21:05;7.40;;;2.92;;
30398;SDS011;17195;50.838;7.214;2023-02-28T01:23:32;7.00;;;2.92;;
30398;SDS011;17195;50.838;7.214;2023-02-28T01:26:03;5.95;;;3.03;;
30398;SDS011;17195;50.838;7.214;2023-02-28T01:28:33;7.50;;;3.28;;
30398;SDS011;17195;50.838;7.214;2023-02-28T01:30:59;5.07;;;3.08;;
30398;SDS011;17195;50.838;7.214;2023-02-28T01:33:24;5.70;;;3.13;;
30398;SDS011;17195;50.838;7.214;2023-02-28T01:36:04;5.85;;;2.60;;
30398;SDS011;17195;50.838;7.214;2023-02-28T01:38:32;3.90;;;2.83;;
30398;SDS011;17195;50.838;7.214;2023-02-28T01:40:58;5.43;;;2.60;;
30398;SDS011;17195;50.838;7.214;2023-02-28T01:43:25;6.05;;;2.90;;
30398;SDS011;17195;50.838;7.214;2023-02-28T01:45:53;4.32;;;2.53;;
30398;SDS011;17195;50.838;7.214;2023-02-28T01:48:21;6.65;;;2.53;;
30398;SDS011;17195;50.838;7.214;2023-02-28T01:50:52;6.68;;;2.60;;
30398;SDS011;17195;50.838;7.214;2023-02-28T01:53:23;2.88;;;2.22;;
30398;SDS011;17195;50.838;7.214;2023-02-28T01:55:55;5.45;;;2.50;;
30398;SDS011;17195;50.838;7.214;2023-02-28T01:58:21;5.63;;;2.47;;
30398;SDS011;17195;50.838;7.214;2023-02-28T02:00:47;5.13;;;2.42;;
30398;SDS011;17195;50.838;7.214;2023-02-28T02:03:14;5.28;;;2.70;;
30398;SDS011;17195;50.838;7.214;2023-02-28T02:05:44;4.38;;;2.40;;
30398;SDS011;17195;50.838;7.214;2023-02-28T02:08:13;7.82;;;2.30;;
30398;SDS011;17195;50.838;7.214;2023-02-28T02:10:48;5.45;;;2.63;;
30398;SDS011;17195;50.838;7.214;2023-02-28T02:13:38;4.40;;;2.67;;
30398;SDS011;17195;50.838;7.214;2023-02-28T02:18:51;5.95;;;2.88;;
30398;SDS011;17195;50.838;7.214;2023-02-28T02:27:11;4.85;;;2.40;;
30398;SDS011;17195;50.838;7.214;2023-02-28T02:36:03;4.95;;;2.50;;
30398;SDS011;17195;50.838;7.214;2023-02-28T02:38:53;4.95;;;2.45;;
30398;SDS011;17195;50.838;7.214;2023-02-28T02:46:47;4.68;;;2.53;;
30398;SDS011;17195;50.838;7.214;2023-02-28T02:49:26;5.80;;;2.08;;
30398;SDS011;17195;50.838;7.214;2023-02-28T02:51:56;6.43;;;2.63;;
30398;SDS011;17195;50.838;7.214;2023-02-28T02:54:28;4.45;;;2.30;;
30398;SDS011;17195;50.838;7.214;2023-02-28T02:56:59;4.63;;;2.40;;
30398;SDS011;17195;50.838;7.214;2023-02-28T02:59:29;4.03;;;2.08;;
30398;SDS011;17195;50.838;7.214;2023-02-28T03:01:56;2.58;;;2.13;;
30398;SDS011;17195;50.838;7.214;2023-02-28T03:04:25;4.10;;;2.22;;
30398;SDS011;17195;50.838;7.214;2023-02-28T03:06:55;4.15;;;2.60;;
30398;SDS011;17195;50.838;7.214;2023-02-28T03:09:22;4.32;;;2.20;;
30398;SDS011;17195;50.838;7.214;2023-02-28T03:11:49;3.30;;;2.10;;
30398;SDS011;17195;50.838;7.214;2023-02-28T03:17:16;5.90;;;2.80;;
30398;SDS011;17195;50.838;7.214;2023-02-28T03:22:59;8.18;;;3.80;;
30398;SDS011;17195;50.838;7.214;2023-02-28T03:25:37;5.90;;;3.03;;
30398;SDS011;17195;50.838;7.214;2023-02-28T03:28:31;5.82;;;3.20;;
30398;SDS011;17195;50.838;7.214;2023-02-28T03:31:14;4.07;;;2.65;;
30398;SDS011;17195;50.838;7.214;2023-02-28T03:34:06;5.75;;;2.67;;
30398;SDS011;17195;50.838;7.214;2023-02-28T03:36:39;3.15;;;2.30;;
30398;SDS011;17195;50.838;7.214;2023-02-28T03:39:11;3.83;;;2.30;;
30398;SDS011;17195;50.838;7.214;2023-02-28T03:41:42;5.57;;;2.33;;
30398;SDS011;17195;50.838;7.214;2023-02-28T03:44:25;4.90;;;2.22;;
30398;SDS011;17195;50.838;7.214;2023-02-28T03:47:11;4.53;;;2.72;;
30398;SDS011;17195;50.838;7.214;2023-02-28T03:49:43;4.88;;;2.60;;
30398;SDS011;17195;50.838;7.214;2023-02-28T03:52:14;4.95;;;3.05;;
30398;SDS011;17195;50.838;7.214;2023-02-28T03:54:41;6.50;;;2.72;;
30398;SDS011;17195;50.838;7.214;2023-02-28T04:00:00;7.90;;;2.83;;
30398;SDS011;17195;50.838;7.214;2023-02-28T04:02:31;5.82;;;3.25;;
30398;SDS011;17195;50.838;7.214;2023-02-28T04:04:57;5.85;;;3.10;;
30398;SDS011;17195;50.838;7.214;2023-02-28T04:07:24;2.85;;;2.65;;
30398;SDS011;17195;50.838;7.214;2023-02-28T04:09:55;3.30;;;2.20;;
30398;SDS011;17195;50.838;7.214;2023-02-28T04:12:21;5.63;;;2.50;;
30398;SDS011;17195;50.838;7.214;2023-02-28T04:14:48;3.85;;;2.33;;
30398;SDS011;17195;50.838;7.214;2023-02-28T04:17:13;3.95;;;2.30;;
30398;SDS011;17195;50.838;7.214;2023-02-28T04:19:39;4.72;;;2.60;;
30398;SDS011;17195;50.838;7.214;2023-02-28T04:22:05;3.70;;;2.50;;
30398;SDS011;17195;50.838;7.214;2023-02-28T04:24:30;4.13;;;2.40;;
30398;SDS011;17195;50.838;7.214;2023-02-28T04:26:56;2.60;;;2.20;;
30398;SDS011;17195;50.838;7.214;2023-02-28T04:29:26;5.45;;;1.98;;
30398;SDS011;17195;50.838;7.214;2023-02-28T04:31:53;5.85;;;2.75;;
30398;SDS011;17195;50.838;7.214;2023-02-28T04:34:21;3.78;;;2.47;;
30398;SDS011;17195;50.838;7.214;2023-02-28T04:36:47;3.80;;;2.20;;
30398;SDS011;17195;50.838;7.214;2023-02-28T04:39:18;3.70;;;2.40;;
30398;SDS011;17195;50.838;7.214;2023-02-28T04:41:45;5.50;;;2.55;;
30398;SDS011;17195;50.838;7.214;2023-02-28T04:44:11;3.63;;;2.72;;
30398;SDS011;17195;50.838;7.214;2023-02-28T04:46:36;4.35;;;2.83;;
30398;SDS011;17195;50.838;7.214;2023-02-28T04:49:02;2.88;;;2.33;;
30398;SDS011;17195;50.838;7.214;2023-02-28T04:51:28;3.90;;;2.25;;
30398;SDS011;17195;50.838;7.214;2023-02-28T04:53:53;7.60;;;3.28;;
30398;SDS011;17195;50.838;7.214;2023-02-28T04:56:19;7.78;;;4.97;;
30398;SDS011;17195;50.838;7.214;2023-02-28T04:58:45;5.13;;;3.78;;
30398;SDS011;17195;50.838;7.214;2023-02-28T05:01:20;5.63;;;3.35;;
30398;SDS011;17195;50.838;7.214;2023-02-28T05:03:49;5.20;;;3.33;;
30398;SDS011;17195;50.838;7.214;2023-02-28T05:06:16;4.03;;;2.88;;
30398;SDS011;17195;50.838;7.214;2023-02-28T05:08:42;3.90;;;2.90;;
30398;SDS011;17195;50.838;7.214;2023-02-28T05:11:15;5.03;;;3.40;;
30398;SDS011;17195;50.838;7.214;2023-02-28T05:13:43;3.45;;;2.95;;
30398;SDS011;17195;50.838;7.214;2023-02-28T05:16:09;4.18;;;2.92;;
30398;SDS011;17195;50.838;7.214;2023-02-28T05:18:35;4.65;;;2.67;;
30398;SDS011;17195;50.838;7.214;2023-02-28T05:21:00;4.35;;;2.65;;
30398;SDS011;17195;50.838;7.214;2023-02-28T05:23:27;3.72;;;2.55;;
30398;SDS011;17195;50.838;7.214;2023-02-28T05:25:53;2.88;;;2.50;;
30398;SDS011;17195;50.838;7.214;2023-02-28T05:28:19;4.10;;;2.20;;
30398;SDS011;17195;50.838;7.214;2023-02-28T05:30:44;3.80;;;2.30;;
30398;SDS011;17195;50.838;7.214;2023-02-28T05:33:10;4.32;;;2.50;;
30398;SDS011;17195;50.838;7.214;2023-02-28T05:35:40;4.35;;;2.55;;
30398;SDS011;17195;50.838;7.214;2023-02-28T05:38:07;3.78;;;2.53;;
30398;SDS011;17195;50.838;7.214;2023-02-28T05:40:33;5.18;;;3.13;;
30398;SDS011;17195;50.838;7.214;2023-02-28T05:42:58;4.60;;;2.53;;
30398;SDS011;17195;50.838;7.214;2023-02-28T05:45:24;5.40;;;2.53;;
30398;SDS011;17195;50.838;7.214;2023-02-28T05:47:52;5.13;;;2.60;;
30398;SDS011;17195;50.838;7.214;2023-02-28T05:50:18;4.35;;;2.60;;
30398;SDS011;17195;50.838;7.214;2023-02-28T05:52:44;6.32;;;3.40;;
30398;SDS011;17195;50.838;7.214;2023-02-28T05:55:13;5.63;;;4.13;;
30398;SDS011;17195;50.838;7.214;2023-02-28T05:57:39;93.50;;;35.83;;
30398;SDS011;17195;50.838;7.214;2023-02-28T06:00:04;97.30;;;37.03;;
30398;SDS011;17195;50.838;7.214;2023-02-28T06:02:30;48.20;;;20.05;;
30398;SDS011;17195;50.838;7.214;2023-02-28T06:04:56;30.27;;;12.73;;
30398;SDS011;17195;50.838;7.214;2023-02-28T06:07:21;47.92;;;22.25;;
30398;SDS011;17195;50.838;7.214;2023-02-28T06:09:47;14.85;;;8.50;;
30398;SDS011;17195;50.838;7.214;2023-02-28T06:12:13;16.63;;;8.15;;
30398;SDS011;17195;50.838;7.214;2023-02-28T06:14:38;20.58;;;10.75;;
30398;SDS011;17195;50.838;7.214;2023-02-28T06:17:04;19.50;;;9.80;;
30398;SDS011;17195;50.838;7.214;2023-02-28T06:19:29;16.13;;;9.02;;
30398;SDS011;17195;50.838;7.214;2023-02-28T06:21:56;15.75;;;9.32;;
30398;SDS011;17195;50.838;7.214;2023-02-28T06:24:23;17.90;;;8.93;;
30398;SDS011;17195;50.838;7.214;2023-02-28T06:26:50;14.30;;;8.02;;
30398;SDS011;17195;50.838;7.214;2023-02-28T06:29:16;10.75;;;7.18;;
30398;SDS011;17195;50.838;7.214;2023-02-28T06:31:43;11.95;;;6.55;;
30398;SDS011;17195;50.838;7.214;2023-02-28T06:34:10;11.20;;;6.00;;
30398;SDS011;17195;50.838;7.214;2023-02-28T06:36:39;14.50;;;8.05;;
30398;SDS011;17195;50.838;7.214;2023-02-28T06:39:06;16.75;;;8.15;;
30398;SDS011;17195;50.838;7.214;2023-02-28T06:41:33;11.43;;;6.90;;
30398;SDS011;17195;50.838;7.214;2023-02-28T06:44:03;12.65;;;6.75;;
30398;SDS011;17195;50.838;7.214;2023-02-28T06:46:30;8.85;;;6.07;;
30398;SDS011;17195;50.838;7.214;2023-02-28T06:48:56;8.02;;;5.95;;
30398;SDS011;17195;50.838;7.214;2023-02-28T06:51:21;10.45;;;5.57;;
30398;SDS011;17195;50.838;7.214;2023-02-28T06:53:47;12.85;;;7.53;;
30398;SDS011;17195;50.838;7.214;2023-02-28T06:56:13;13.20;;;8.27;;
30398;SDS011;17195;50.838;7.214;2023-02-28T06:58:40;14.20;;;8.43;;
30398;SDS011;17195;50.838;7.214;2023-02-28T07:01:06;14.43;;;7.85;;
30398;SDS011;17195;50.838;7.214;2023-02-28T07:03:32;13.80;;;6.53;;
30398;SDS011;17195;50.838;7.214;2023-02-28T07:05:59;11.57;;;6.43;;
30398;SDS011;17195;50.838;7.214;2023-02-28T07:08:25;12.43;;;6.68;;
30398;SDS011;17195;50.838;7.214;2023-02-28T07:10:54;13.88;;;6.60;;
30398;SDS011;17195;50.838;7.214;2023-02-28T07:13:21;9.98;;;5.60;;
30398;SDS011;17195;50.838;7.214;2023-02-28T07:15:57;8.15;;;5.03;;
30398;SDS011;17195;50.838;7.214;2023-02-28T07:18:24;6.80;;;4.32;;
30398;SDS011;17195;50.838;7.214;2023-02-28T07:20:50;7.28;;;4.70;;
30398;SDS011;17195;50.838;7.214;2023-02-28T07:23:16;6.28;;;4.20;;
30398;SDS011;17195;50.838;7.214;2023-02-28T07:25:42;8.20;;;4.45;;
30398;SDS011;17195;50.838;7.214;2023-02-28T07:28:09;6.10;;;4.28;;
30398;SDS011;17195;50.838;7.214;2023-02-28T07:30:34;10.27;;;5.50;;
30398;SDS011;17195;50.838;7.214;2023-02-28T07:33:00;15.68;;;6.05;;
30398;SDS011;17195;50.838;7.214;2023-02-28T07:35:25;28.00;;;9.13;;
30398;SDS011;17195;50.838;7.214;2023-02-28T07:37:51;28.63;;;9.20;;
30398;SDS011;17195;50.838;7.214;2023-02-28T07:40:16;15.25;;;6.38;;
30398;SDS011;17195;50.838;7.214;2023-02-28T07:42:43;13.65;;;6.38;;
30398;SDS011;17195;50.838;7.214;2023-02-28T07:45:09;9.50;;;4.88;;
30398;SDS011;17195;50.838;7.214;2023-02-28T07:47:37;8.43;;;3.90;;
30398;SDS011;17195;50.838;7.214;2023-02-28T07:50:03;7.07;;;4.03;;
30398;SDS011;17195;50.838;7.214;2023-02-28T07:52:29;6.72;;;4.13;;
30398;SDS011;17195;50.838;7.214;2023-02-28T07:54:55;9.00;;;3.85;;
30398;SDS011;17195;50.838;7.214;2023-02-28T07:57:21;4.95;;;3.50;;
30398;SDS011;17195;50.838;7.214;2023-02-28T07:59:47;6.38;;;3.83;;
30398;SDS011;17195;50.838;7.214;2023-02-28T08:02:13;5.18;;;3.35;;
30398;SDS011;17195;50.838;7.214;2023-02-28T08:04:40;10.88;;;4.32;;
30398;SDS011;17195;50.838;7.214;2023-02-28T08:07:05;5.03;;;3.67;;
30398;SDS011;17195;50.838;7.214;2023-02-28T08:09:31;6.53;;;2.92;;
30398;SDS011;17195;50.838;7.214;2023-02-28T08:11:57;2.80;;;2.60;;
30398;SDS011;17195;50.838;7.214;2023-02-28T08:14:22;5.47;;;2.28;;
30398;SDS011;17195;50.838;7.214;2023-02-28T08:16:48;2.45;;;2.20;;
30398;SDS011;17195;50.838;7.214;2023-02-28T08:19:13;3.20;;;2.50;;
30398;SDS011;17195;50.838;7.214;2023-02-28T08:21:39;3.10;;;1.98;;
30398;SDS011;17195;50.838;7.214;2023-02-28T08:24:05;2.55;;;2.22;;
30398;SDS011;17195;50.838;7.214;2023-02-28T08:26:31;4.35;;;2.45;;
30398;SDS011;17195;50.838;7.214;2023-02-28T08:28:56;2.20;;;2.00;;
30398;SDS011;17195;50.838;7.214;2023-02-28T08:31:22;3.83;;;2.03;;
30398;SDS011;17195;50.838;7.214;2023-02-28T08:33:48;5.72;;;2.88;;
30398;SDS011;17195;50.838;7.214;2023-02-28T08:36:16;3.00;;;2.03;;
30398;SDS011;17195;50.838;7.214;2023-02-28T08:38:42;3.33;;;1.60;;
30398;SDS011;17195;50.838;7.214;2023-02-28T08:41:09;2.20;;;1.85;;
30398;SDS011;17195;50.838;7.214;2023-02-28T08:43:36;2.55;;;1.92;;
30398;SDS011;17195;50.838;7.214;2023-02-28T08:46:03;4.00;;;1.98;;
30398;SDS011;17195;50.838;7.214;2023-02-28T08:48:30;2.97;;;1.88;;
30398;SDS011;17195;50.838;7.214;2023-02-28T08:50:57;2.05;;;1.85;;
30398;SDS011;17195;50.838;7.214;2023-02-28T08:53:31;2.65;;;2.05;;
30398;SDS011;17195;50.838;7.214;2023-02-28T08:55:58;3.05;;;2.45;;
30398;SDS011;17195;50.838;7.214;2023-02-28T08:58:25;4.15;;;2.88;;
30398;SDS011;17195;50.838;7.214;2023-02-28T09:00:51;3.80;;;2.30;;
30398;SDS011;17195;50.838;7.214;2023-02-28T09:03:17;2.42;;;1.95;;
30398;SDS011;17195;50.838;7.214;2023-02-28T09:05:51;2.25;;;1.88;;
30398;SDS011;17195;50.838;7.214;2023-02-28T09:08:27;3.20;;;2.17;;
30398;SDS011;17195;50.838;7.214;2023-02-28T09:10:53;2.35;;;1.70;;
30398;SDS011;17195;50.838;7.214;2023-02-28T09:13:21;2.53;;;1.58;;
30398;SDS011;17195;50.838;7.214;2023-02-28T09:15:47;3.58;;;1.88;;
30398;SDS011;17195;50.838;7.214;2023-02-28T09:18:13;2.50;;;1.90;;
30398;SDS011;17195;50.838;7.214;2023-02-28T09:20:39;2.58;;;1.80;;
30398;SDS011;17195;50.838;7.214;2023-02-28T09:23:06;1.98;;;1.50;;
30398;SDS011;17195;50.838;7.214;2023-02-28T09:25:32;4.90;;;1.70;;
30398;SDS011;17195;50.838;7.214;2023-02-28T09:27:58;2.58;;;1.60;;
30398;SDS011;17195;50.838;7.214;2023-02-28T09:30:24;2.53;;;1.83;;
30398;SDS011;17195;50.838;7.214;2023-02-28T09:32:49;3.25;;;1.50;;
30398;SDS011;17195;50.838;7.214;2023-02-28T09:35:18;2.65;;;1.55;;
30398;SDS011;17195;50.838;7.214;2023-02-28T09:37:45;1.83;;;1.70;;
30398;SDS011;17195;50.838;7.214;2023-02-28T09:40:12;2.22;;;1.83;;
30398;SDS011;17195;50.838;7.214;2023-02-28T09:42:39;4.18;;;2.30;;
30398;SDS011;17195;50.838;7.214;2023-02-28T09:45:06;4.68;;;1.70;;
30398;SDS011;17195;50.838;7.214;2023-02-28T09:47:58;3.53;;;1.60;;
30398;SDS011;17195;50.838;7.214;2023-02-28T09:52:58;2.30;;;1.63;;
30398;SDS011;17195;50.838;7.214;2023-02-28T09:55:28;3.60;;;1.45;;
30398;SDS011;17195;50.838;7.214;2023-02-28T09:57:59;3.90;;;1.67;;
30398;SDS011;17195;50.838;7.214;2023-02-28T10:00:33;2.58;;;1.48;;
30398;SDS011;17195;50.838;7.214;2023-02-28T10:03:19;3.60;;;1.48;;
30398;SDS011;17195;50.838;7.214;2023-02-28T10:06:07;2.75;;;1.30;;
30398;SDS011;17195;50.838;7.214;2023-02-28T10:08:56;3.28;;;1.15;;
30398;SDS011;17195;50.838;7.214;2023-02-28T10:11:27;1.95;;;1.45;;
30398;SDS011;17195;50.838;7.214;2023-02-28T10:13:54;2.47;;;1.63;;
30398;SDS011;17195;50.838;7.214;2023-02-28T10:16:28;2.53;;;1.48;;
30398;SDS011;17195;50.838;7.214;2023-02-28T10:19:22;1.50;;;1.27;;
30398;SDS011;17195;50.838;7.214;2023-02-28T10:22:03;1.95;;;1.40;;
30398;SDS011;17195;50.838;7.214;2023-02-28T10:24:39;2.15;;;1.35;;
30398;SDS011;17195;50.838;7.214;2023-02-28T10:27:15;3.55;;;1.58;;
30398;SDS011;17195;50.838;7.214;2023-02-28T10:29:44;4.15;;;1.33;;
30398;SDS011;17195;50.838;7.214;2023-02-28T10:32:13;1.70;;;1.25;;
30398;SDS011;17195;50.838;7.214;2023-02-28T10:34:44;3.40;;;1.45;;
30398;SDS011;17195;50.838;7.214;2023-02-28T10:37:15;2.38;;;1.70;;
30398;SDS011;17195;50.838;7.214;2023-02-28T10:39:45;2.42;;;1.38;;
30398;SDS011;17195;50.838;7.214;2023-02-28T10:42:25;2.63;;;1.40;;
30398;SDS011;17195;50.838;7.214;2023-02-28T10:53:45;1.40;;;1.30;;
30398;SDS011;17195;50.838;7.214;2023-02-28T11:09:34;3.15;;;1.83;;
30398;SDS011;17195;50.838;7.214;2023-02-28T11:12:05;2.28;;;1.45;;
30398;SDS011;17195;50.838;7.214;2023-02-28T11:14:36;2.33;;;1.40;;
30398;SDS011;17195;50.838;7.214;2023-02-28T11:19:53;4.05;;;1.70;;
30398;SDS011;17195;50.838;7.214;2023-02-28T11:24:53;2.60;;;1.60;;
30398;SDS011;17195;50.838;7.214;2023-02-28T11:29:58;2.22;;;1.40;;
30398;SDS011;17195;50.838;7.214;2023-02-28T11:32:26;2.63;;;1.77;;
30398;SDS011;17195;50.838;7.214;2023-02-28T11:35:57;2.40;;;1.60;;
30398;SDS011;17195;50.838;7.214;2023-02-28T11:37:57;3.10;;;1.58;;
30398;SDS011;17195;50.838;7.214;2023-02-28T11:51:45;2.92;;;1.65;;
30398;SDS011;17195;50.838;7.214;2023-02-28T11:57:35;2.15;;;1.40;;
30398;SDS011;17195;50.838;7.214;2023-02-28T12:05:45;5.20;;;1.90;;
30398;SDS011;17195;50.838;7.214;2023-02-28T12:08:32;2.85;;;1.90;;
30398;SDS011;17195;50.838;7.214;2023-02-28T12:11:34;3.17;;;1.80;;
30398;SDS011;17195;50.838;7.214;2023-02-28T12:16:44;3.50;;;1.88;;
30398;SDS011;17195;50.838;7.214;2023-02-28T12:19:26;4.30;;;1.52;;
30398;SDS011;17195;50.838;7.214;2023-02-28T12:22:27;5.20;;;1.63;;
30398;SDS011;17195;50.838;7.214;2023-02-28T12:27:46;1.80;;;1.70;;
30398;SDS011;17195;50.838;7.214;2023-02-28T12:32:58;2.80;;;1.80;;
30398;SDS011;17195;50.838;7.214;2023-02-28T12:35:33;1.80;;;1.42;;
30398;SDS011;17195;50.838;7.214;2023-02-28T12:38:06;1.70;;;1.50;;
30398;SDS011;17195;50.838;7.214;2023-02-28T12:40:57;2.60;;;1.60;;
30398;SDS011;17195;50.838;7.214;2023-02-28T12:43:34;5.18;;;2.40;;
30398;SDS011;17195;50.838;7.214;2023-02-28T12:48:44;3.35;;;2.08;;
30398;SDS011;17195;50.838;7.214;2023-02-28T12:51:13;5.68;;;2.50;;
30398;SDS011;17195;50.838;7.214;2023-02-28T12:58:39;3.30;;;2.25;;
30398;SDS011;17195;50.838;7.214;2023-02-28T13:06:20;3.53;;;2.30;;
30398;SDS011;17195;50.838;7.214;2023-02-28T13:11:52;4.40;;;2.42;;
30398;SDS011;17195;50.838;7.214;2023-02-28T13:24:51;3.50;;;3.00;;
30398;SDS011;17195;50.838;7.214;2023-02-28T13:36:22;3.22;;;2.15;;
30398;SDS011;17195;50.838;7.214;2023-02-28T13:38:54;4.03;;;2.20;;
30398;SDS011;17195;50.838;7.214;2023-02-28T13:44:00;4.95;;;2.90;;
30398;SDS011;17195;50.838;7.214;2023-02-28T13:46:31;3.65;;;2.60;;
30398;SDS011;17195;50.838;7.214;2023-02-28T14:05:35;4.25;;;2.88;;
30398;SDS011;17195;50.838;7.214;2023-02-28T14:08:06;3.05;;;2.50;;
30398;SDS011;17195;50.838;7.214;2023-02-28T14:15:57;4.20;;;2.72;;
30398;SDS011;17195;50.838;7.214;2023-02-28T14:18:31;4.00;;;3.20;;
30398;SDS011;17195;50.838;7.214;2023-02-28T14:30:17;5.38;;;2.90;;
30398;SDS011;17195;50.838;7.214;2023-02-28T14:33:20;4.68;;;2.78;;
30398;SDS011;17195;50.838;7.214;2023-02-28T14:38:50;2.92;;;2.53;;
30398;SDS011;17195;50.838;7.214;2023-02-28T14:41:35;3.88;;;3.10;;
30398;SDS011;17195;50.838;7.214;2023-02-28T14:44:23;5.65;;;2.95;;
30398;SDS011;17195;50.838;7.214;2023-02-28T14:47:11;3.25;;;2.80;;
30398;SDS011;17195;50.838;7.214;2023-02-28T14:49:44;3.92;;;3.03;;
30398;SDS011;17195;50.838;7.214;2023-02-28T14:52:13;4.95;;;2.90;;
30398;SDS011;17195;50.838;7.214;2023-02-28T14:54:42;3.90;;;2.70;;
30398;SDS011;17195;50.838;7.214;2023-02-28T14:57:22;3.60;;;2.70;;
30398;SDS011;17195;50.838;7.214;2023-02-28T15:00:13;4.22;;;2.90;;
30398;SDS011;17195;50.838;7.214;2023-02-28T15:02:42;3.30;;;2.80;;
30398;SDS011;17195;50.838;7.214;2023-02-28T15:07:46;4.13;;;2.88;;
30398;SDS011;17195;50.838;7.214;2023-02-28T15:10:20;4.07;;;2.95;;
30398;SDS011;17195;50.838;7.214;2023-02-28T15:12:58;3.28;;;2.75;;
30398;SDS011;17195;50.838;7.214;2023-02-28T15:18:26;5.10;;;3.03;;
30398;SDS011;17195;50.838;7.214;2023-02-28T15:20:53;3.22;;;2.88;;
30398;SDS011;17195;50.838;7.214;2023-02-28T15:23:19;8.57;;;3.13;;
30398;SDS011;17195;50.838;7.214;2023-02-28T15:25:47;3.65;;;3.03;;
30398;SDS011;17195;50.838;7.214;2023-02-28T15:28:14;3.65;;;3.00;;
30398;SDS011;17195;50.838;7.214;2023-02-28T15:30:55;4.28;;;2.90;;
30398;SDS011;17195;50.838;7.214;2023-02-28T15:33:22;5.18;;;3.00;;
30398;SDS011;17195;50.838;7.214;2023-02-28T15:35:49;3.10;;;2.80;;
30398;SDS011;17195;50.838;7.214;2023-02-28T15:40:42;4.25;;;2.70;;
30398;SDS011;17195;50.838;7.214;2023-02-28T15:48:12;3.00;;;2.70;;
30398;SDS011;17195;50.838;7.214;2023-02-28T15:50:47;3.55;;;2.90;;
30398;SDS011;17195;50.838;7.214;2023-02-28T15:53:35;4.65;;;3.40;;
30398;SDS011;17195;50.838;7.214;2023-02-28T15:56:20;3.80;;;2.90;;
30398;SDS011;17195;50.838;7.214;2023-02-28T15:58:49;5.25;;;2.97;;
30398;SDS011;17195;50.838;7.214;2023-02-28T16:01:21;4.03;;;2.60;;
30398;SDS011;17195;50.838;7.214;2023-02-28T16:03:50;5.65;;;2.97;;
30398;SDS011;17195;50.838;7.214;2023-02-28T16:08:48;3.40;;;2.70;;
30398;SDS011;17195;50.838;7.214;2023-02-28T16:11:16;4.45;;;3.00;;
30398;SDS011;17195;50.838;7.214;2023-02-28T16:13:41;3.97;;;2.97;;
30398;SDS011;17195;50.838;7.214;2023-02-28T16:16:07;4.38;;;2.75;;
30398;SDS011;17195;50.838;7.214;2023-02-28T16:18:33;5.80;;;3.20;;
30398;SDS011;17195;50.838;7.214;2023-02-28T16:20:58;2.80;;;2.55;;
30398;SDS011;17195;50.838;7.214;2023-02-28T16:23:24;4.13;;;3.10;;
30398;SDS011;17195;50.838;7.214;2023-02-28T16:25:49;3.92;;;2.65;;
30398;SDS011;17195;50.838;7.214;2023-02-28T16:28:18;3.30;;;3.00;;
30398;SDS011;17195;50.838;7.214;2023-02-28T16:30:48;3.95;;;2.72;;
30398;SDS011;17195;50.838;7.214;2023-02-28T16:33:16;3.35;;;2.78;;
30398;SDS011;17195;50.838;7.214;2023-02-28T16:35:42;3.38;;;3.08;;
30398;SDS011;17195;50.838;7.214;2023-02-28T16:38:07;5.90;;;3.00;;
30398;SDS011;17195;50.838;7.214;2023-02-28T16:40:33;4.47;;;2.88;;
30398;SDS011;17195;50.838;7.214;2023-02-28T16:43:00;5.60;;;3.58;;
30398;SDS011;17195;50.838;7.214;2023-02-28T16:45:31;4.47;;;3.15;;
30398;SDS011;17195;50.838;7.214;2023-02-28T16:47:57;5.38;;;3.15;;
30398;SDS011;17195;50.838;7.214;2023-02-28T16:52:49;3.90;;;2.95;;
30398;SDS011;17195;50.838;7.214;2023-02-28T16:55:17;4.75;;;3.38;;
30398;SDS011;17195;50.838;7.214;2023-02-28T16:57:43;6.03;;;3.35;;
30398;SDS011;17195;50.838;7.214;2023-02-28T17:00:12;5.68;;;3.50;;
30398;SDS011;17195;50.838;7.214;2023-02-28T17:02:38;5.20;;;3.00;;
30398;SDS011;17195;50.838;7.214;2023-02-28T17:05:04;5.05;;;3.30;;
30398;SDS011;17195;50.838;7.214;2023-02-28T17:07:30;5.43;;;3.50;;
30398;SDS011;17195;50.838;7.214;2023-02-28T17:09:55;4.75;;;3.45;;
30398;SDS011;17195;50.838;7.214;2023-02-28T17:12:21;9.13;;;3.40;;
30398;SDS011;17195;50.838;7.214;2023-02-28T17:14:46;4.78;;;3.70;;
30398;SDS011;17195;50.838;7.214;2023-02-28T17:17:16;6.15;;;3.88;;
30398;SDS011;17195;50.838;7.214;2023-02-28T17:19:44;4.63;;;3.50;;
30398;SDS011;17195;50.838;7.214;2023-02-28T17:22:10;9.50;;;4.40;;
30398;SDS011;17195;50.838;7.214;2023-02-28T17:24:36;6.88;;;4.18;;
30398;SDS011;17195;50.838;7.214;2023-02-28T17:27:01;5.93;;;4.28;;
30398;SDS011;17195;50.838;7.214;2023-02-28T17:29:27;8.48;;;4.28;;
30398;SDS011;17195;50.838;7.214;2023-02-28T17:31:53;10.90;;;5.95;;
30398;SDS011;17195;50.838;7.214;2023-02-28T17:34:18;7.95;;;5.68;;
30398;SDS011;17195;50.838;7.214;2023-02-28T17:36:48;8.05;;;5.88;;
30398;SDS011;17195;50.838;7.214;2023-02-28T17:39:15;15.13;;;8.07;;
30398;SDS011;17195;50.838;7.214;2023-02-28T17:41:49;15.93;;;7.97;;
30398;SDS011;17195;50.838;7.214;2023-02-28T17:44:16;9.23;;;5.47;;
30398;SDS011;17195;50.838;7.214;2023-02-28T17:46:42;12.13;;;6.90;;
30398;SDS011;17195;50.838;7.214;2023-02-28T17:49:08;15.40;;;8.95;;
30398;SDS011;17195;50.838;7.214;2023-02-28T17:51:35;17.67;;;11.32;;
30398;SDS011;17195;50.838;7.214;2023-02-28T17:54:00;15.50;;;10.25;;
30398;SDS011;17195;50.838;7.214;2023-02-28T17:56:26;16.52;;;10.55;;
30398;SDS011;17195;50.838;7.214;2023-02-28T17:58:52;15.10;;;10.25;;